sensor_id;sensor_type;location;lat;lon;timestamp;P1;durP1;ratioP1;P2;durP2;ratioP2
76332;SDS011;71254;53.010;6.508;2024-03-25T00:00:39;12.45;;;2.95;;
76332;SDS011;71254;53.010;6.508;2024-03-25T00:03:06;11.77;;;3.25;;
76332;SDS011;71254;53.010;6.508;2024-03-25T00:05:32;11.93;;;3.55;;
76332;SDS011;71254;53.010;6.508;2024-03-25T00:07:58;11.40;;;3.13;;
76332;SDS011;71254;53.010;6.508;2024-03-25T00:10:23;10.48;;;3.08;;
76332;SDS011;71254;53.010;6.508;2024-03-25T00:12:49;7.57;;;3.08;;
76332;SDS011;71254;53.010;6.508;2024-03-25T00:15:19;7.93;;;2.60;;
76332;SDS011;71254;53.010;6.508;2024-03-25T00:17:46;11.48;;;3.45;;
76332;SDS011;71254;53.010;6.508;2024-03-25T00:20:15;10.00;;;2.97;;
76332;SDS011;71254;53.010;6.508;2024-03-25T00:22:40;12.25;;;3.17;;
76332;SDS011;71254;53.010;6.508;2024-03-25T00:25:07;8.38;;;2.92;;
76332;SDS011;71254;53.010;6.508;2024-03-25T00:27:33;8.32;;;2.70;;
76332;SDS011;71254;53.010;6.508;2024-03-25T00:29:59;10.20;;;3.22;;
76332;SDS011;71254;53.010;6.508;2024-03-25T00:32:25;10.48;;;2.88;;
76332;SDS011;71254;53.010;6.508;2024-03-25T00:34:50;6.47;;;2.88;;
76332;SDS011;71254;53.010;6.508;2024-03-25T00:37:16;11.50;;;3.42;;
76332;SDS011;71254;53.010;6.508;2024-03-25T00:39:42;10.13;;;2.75;;
76332;SDS011;71254;53.010;6.508;2024-03-25T00:42:07;8.80;;;2.92;;
76332;SDS011;71254;53.010;6.508;2024-03-25T00:44:33;9.68;;;3.55;;
76332;SDS011;71254;53.010;6.508;2024-03-25T00:46:58;10.30;;;3.17;;
76332;SDS011;71254;53.010;6.508;2024-03-25T00:49:24;11.77;;;3.45;;
76332;SDS011;71254;53.010;6.508;2024-03-25T00:51:49;7.72;;;2.97;;
76332;SDS011;71254;53.010;6.508;2024-03-25T00:54:15;10.20;;;2.90;;
76332;SDS011;71254;53.010;6.508;2024-03-25T00:56:41;11.57;;;2.92;;
76332;SDS011;71254;53.010;6.508;2024-03-25T00:59:07;11.77;;;3.20;;
76332;SDS011;71254;53.010;6.508;2024-03-25T01:01:32;11.40;;;3.13;;
76332;SDS011;71254;53.010;6.508;2024-03-25T01:04:00;15.38;;;5.28;;
76332;SDS011;71254;53.010;6.508;2024-03-25T01:06:26;12.07;;;3.22;;
76332;SDS011;71254;53.010;6.508;2024-03-25T01:08:52;7.97;;;3.40;;
76332;SDS011;71254;53.010;6.508;2024-03-25T01:11:18;9.40;;;2.60;;
76332;SDS011;71254;53.010;6.508;2024-03-25T01:13:43;10.25;;;3.45;;
76332;SDS011;71254;53.010;6.508;2024-03-25T01:16:09;13.32;;;3.70;;
76332;SDS011;71254;53.010;6.508;2024-03-25T01:18:35;9.15;;;2.88;;
76332;SDS011;71254;53.010;6.508;2024-03-25T01:21:01;14.68;;;3.03;;
76332;SDS011;71254;53.010;6.508;2024-03-25T01:23:27;13.38;;;2.78;;
76332;SDS011;71254;53.010;6.508;2024-03-25T01:25:52;11.75;;;3.42;;
76332;SDS011;71254;53.010;6.508;2024-03-25T01:28:18;13.23;;;3.28;;
76332;SDS011;71254;53.010;6.508;2024-03-25T01:30:44;12.40;;;3.33;;
76332;SDS011;71254;53.010;6.508;2024-03-25T01:33:09;8.25;;;2.88;;
76332;SDS011;71254;53.010;6.508;2024-03-25T01:35:35;9.43;;;3.28;;
76332;SDS011;71254;53.010;6.508;2024-03-25T01:38:00;10.98;;;3.92;;
76332;SDS011;71254;53.010;6.508;2024-03-25T01:40:26;11.63;;;3.28;;
76332;SDS011;71254;53.010;6.508;2024-03-25T01:43:01;8.75;;;2.88;;
76332;SDS011;71254;53.010;6.508;2024-03-25T01:45:34;15.10;;;3.47;;
76332;SDS011;71254;53.010;6.508;2024-03-25T01:48:10;13.30;;;4.43;;
76332;SDS011;71254;53.010;6.508;2024-03-25T01:50:39;13.95;;;3.53;;
76332;SDS011;71254;53.010;6.508;2024-03-25T01:53:06;13.13;;;3.70;;
76332;SDS011;71254;53.010;6.508;2024-03-25T01:55:33;17.27;;;3.65;;
76332;SDS011;71254;53.010;6.508;2024-03-25T01:58:01;15.55;;;3.78;;
76332;SDS011;71254;53.010;6.508;2024-03-25T02:00:27;11.73;;;3.20;;
76332;SDS011;71254;53.010;6.508;2024-03-25T02:02:53;12.90;;;3.65;;
76332;SDS011;71254;53.010;6.508;2024-03-25T02:05:20;12.13;;;3.33;;
76332;SDS011;71254;53.010;6.508;2024-03-25T02:07:46;14.32;;;3.20;;
76332;SDS011;71254;53.010;6.508;2024-03-25T02:10:13;13.15;;;2.97;;
76332;SDS011;71254;53.010;6.508;2024-03-25T02:12:42;14.00;;;3.20;;
76332;SDS011;71254;53.010;6.508;2024-03-25T02:15:09;12.20;;;3.60;;
76332;SDS011;71254;53.010;6.508;2024-03-25T02:17:36;9.68;;;3.53;;
76332;SDS011;71254;53.010;6.508;2024-03-25T02:20:02;13.65;;;3.40;;
76332;SDS011;71254;53.010;6.508;2024-03-25T02:22:30;17.60;;;3.40;;
76332;SDS011;71254;53.010;6.508;2024-03-25T02:24:56;12.48;;;3.22;;
76332;SDS011;71254;53.010;6.508;2024-03-25T02:27:23;14.93;;;3.53;;
76332;SDS011;71254;53.010;6.508;2024-03-25T02:29:49;15.70;;;3.58;;
76332;SDS011;71254;53.010;6.508;2024-03-25T02:32:18;9.38;;;3.00;;
76332;SDS011;71254;53.010;6.508;2024-03-25T02:34:45;13.93;;;2.85;;
76332;SDS011;71254;53.010;6.508;2024-03-25T02:37:13;11.40;;;3.67;;
76332;SDS011;71254;53.010;6.508;2024-03-25T02:39:38;8.80;;;2.80;;
76332;SDS011;71254;53.010;6.508;2024-03-25T02:42:04;9.90;;;3.13;;
76332;SDS011;71254;53.010;6.508;2024-03-25T02:44:30;13.95;;;2.67;;
76332;SDS011;71254;53.010;6.508;2024-03-25T02:46:57;12.80;;;3.30;;
76332;SDS011;71254;53.010;6.508;2024-03-25T02:49:23;12.95;;;3.58;;
76332;SDS011;71254;53.010;6.508;2024-03-25T02:51:48;9.38;;;3.08;;
76332;SDS011;71254;53.010;6.508;2024-03-25T02:54:14;9.73;;;3.42;;
76332;SDS011;71254;53.010;6.508;2024-03-25T02:56:40;8.15;;;3.15;;
76332;SDS011;71254;53.010;6.508;2024-03-25T02:59:06;11.93;;;2.88;;
76332;SDS011;71254;53.010;6.508;2024-03-25T03:01:31;14.20;;;3.38;;
76332;SDS011;71254;53.010;6.508;2024-03-25T03:03:57;10.23;;;2.90;;
76332;SDS011;71254;53.010;6.508;2024-03-25T03:06:23;13.55;;;2.75;;
76332;SDS011;71254;53.010;6.508;2024-03-25T03:08:48;9.35;;;2.97;;
76332;SDS011;71254;53.010;6.508;2024-03-25T03:11:16;9.43;;;2.50;;
76332;SDS011;71254;53.010;6.508;2024-03-25T03:13:42;14.50;;;3.17;;
76332;SDS011;71254;53.010;6.508;2024-03-25T03:16:07;8.07;;;2.85;;
76332;SDS011;71254;53.010;6.508;2024-03-25T03:18:33;9.48;;;2.75;;
76332;SDS011;71254;53.010;6.508;2024-03-25T03:20:59;11.55;;;2.83;;
76332;SDS011;71254;53.010;6.508;2024-03-25T03:23:25;13.52;;;3.05;;
76332;SDS011;71254;53.010;6.508;2024-03-25T03:25:50;10.68;;;3.08;;
76332;SDS011;71254;53.010;6.508;2024-03-25T03:28:16;11.63;;;2.80;;
76332;SDS011;71254;53.010;6.508;2024-03-25T03:30:42;12.85;;;3.25;;
76332;SDS011;71254;53.010;6.508;2024-03-25T03:33:08;8.00;;;2.80;;
76332;SDS011;71254;53.010;6.508;2024-03-25T03:35:34;9.73;;;2.75;;
76332;SDS011;71254;53.010;6.508;2024-03-25T03:37:59;14.30;;;3.10;;
76332;SDS011;71254;53.010;6.508;2024-03-25T03:40:25;11.52;;;3.00;;
76332;SDS011;71254;53.010;6.508;2024-03-25T03:42:51;8.10;;;2.65;;
76332;SDS011;71254;53.010;6.508;2024-03-25T03:45:16;11.85;;;2.45;;
76332;SDS011;71254;53.010;6.508;2024-03-25T03:47:42;12.75;;;2.80;;
76332;SDS011;71254;53.010;6.508;2024-03-25T03:50:07;9.60;;;2.65;;
76332;SDS011;71254;53.010;6.508;2024-03-25T03:52:34;11.73;;;2.88;;
76332;SDS011;71254;53.010;6.508;2024-03-25T03:55:00;12.38;;;2.97;;
76332;SDS011;71254;53.010;6.508;2024-03-25T03:57:25;10.93;;;3.00;;
76332;SDS011;71254;53.010;6.508;2024-03-25T03:59:51;11.93;;;3.63;;
76332;SDS011;71254;53.010;6.508;2024-03-25T04:02:17;9.85;;;2.70;;
76332;SDS011;71254;53.010;6.508;2024-03-25T04:04:42;14.20;;;2.88;;
76332;SDS011;71254;53.010;6.508;2024-03-25T04:07:08;11.95;;;2.97;;
76332;SDS011;71254;53.010;6.508;2024-03-25T04:09:34;10.15;;;3.53;;
76332;SDS011;71254;53.010;6.508;2024-03-25T04:11:59;8.80;;;3.05;;
76332;SDS011;71254;53.010;6.508;2024-03-25T04:14:26;9.20;;;2.90;;
76332;SDS011;71254;53.010;6.508;2024-03-25T04:16:52;12.13;;;3.03;;
76332;SDS011;71254;53.010;6.508;2024-03-25T04:19:18;12.93;;;3.25;;
76332;SDS011;71254;53.010;6.508;2024-03-25T04:21:44;8.65;;;2.60;;
76332;SDS011;71254;53.010;6.508;2024-03-25T04:24:11;11.80;;;3.17;;
76332;SDS011;71254;53.010;6.508;2024-03-25T04:26:37;14.88;;;2.95;;
76332;SDS011;71254;53.010;6.508;2024-03-25T04:29:03;10.18;;;3.45;;
76332;SDS011;71254;53.010;6.508;2024-03-25T04:31:29;9.45;;;3.58;;
76332;SDS011;71254;53.010;6.508;2024-03-25T04:33:54;10.40;;;2.88;;
76332;SDS011;71254;53.010;6.508;2024-03-25T04:36:20;11.98;;;3.10;;
76332;SDS011;71254;53.010;6.508;2024-03-25T04:38:45;13.05;;;3.15;;
76332;SDS011;71254;53.010;6.508;2024-03-25T04:41:11;10.20;;;2.85;;
76332;SDS011;71254;53.010;6.508;2024-03-25T04:43:36;9.57;;;3.00;;
76332;SDS011;71254;53.010;6.508;2024-03-25T04:46:02;13.40;;;3.63;;
76332;SDS011;71254;53.010;6.508;2024-03-25T04:48:28;9.40;;;3.78;;
76332;SDS011;71254;53.010;6.508;2024-03-25T04:50:53;8.70;;;2.50;;
76332;SDS011;71254;53.010;6.508;2024-03-25T04:53:20;10.60;;;2.95;;
76332;SDS011;71254;53.010;6.508;2024-03-25T04:55:45;10.20;;;3.15;;
76332;SDS011;71254;53.010;6.508;2024-03-25T04:58:11;9.90;;;2.72;;
76332;SDS011;71254;53.010;6.508;2024-03-25T05:00:36;7.43;;;2.50;;
76332;SDS011;71254;53.010;6.508;2024-03-25T05:03:02;10.95;;;3.13;;
76332;SDS011;71254;53.010;6.508;2024-03-25T05:05:29;6.95;;;2.30;;
76332;SDS011;71254;53.010;6.508;2024-03-25T05:07:54;9.40;;;2.63;;
76332;SDS011;71254;53.010;6.508;2024-03-25T05:10:20;9.57;;;2.70;;
76332;SDS011;71254;53.010;6.508;2024-03-25T05:12:46;7.43;;;2.42;;
76332;SDS011;71254;53.010;6.508;2024-03-25T05:15:14;10.77;;;3.28;;
76332;SDS011;71254;53.010;6.508;2024-03-25T05:17:40;7.00;;;3.08;;
76332;SDS011;71254;53.010;6.508;2024-03-25T05:20:06;12.63;;;3.28;;
76332;SDS011;71254;53.010;6.508;2024-03-25T05:22:32;10.52;;;2.80;;
76332;SDS011;71254;53.010;6.508;2024-03-25T05:24:57;11.48;;;3.10;;
76332;SDS011;71254;53.010;6.508;2024-03-25T05:27:23;9.82;;;3.78;;
76332;SDS011;71254;53.010;6.508;2024-03-25T05:29:49;9.38;;;2.60;;
76332;SDS011;71254;53.010;6.508;2024-03-25T05:32:14;13.40;;;2.90;;
76332;SDS011;71254;53.010;6.508;2024-03-25T05:34:42;16.40;;;3.30;;
76332;SDS011;71254;53.010;6.508;2024-03-25T05:37:08;14.02;;;3.53;;
76332;SDS011;71254;53.010;6.508;2024-03-25T05:39:33;13.00;;;3.45;;
76332;SDS011;71254;53.010;6.508;2024-03-25T05:41:59;11.23;;;3.75;;
76332;SDS011;71254;53.010;6.508;2024-03-25T05:44:24;10.82;;;3.40;;
76332;SDS011;71254;53.010;6.508;2024-03-25T05:46:50;10.77;;;3.65;;
76332;SDS011;71254;53.010;6.508;2024-03-25T05:49:15;14.30;;;3.17;;
76332;SDS011;71254;53.010;6.508;2024-03-25T05:51:41;9.43;;;3.10;;
76332;SDS011;71254;53.010;6.508;2024-03-25T05:54:07;12.73;;;3.65;;
76332;SDS011;71254;53.010;6.508;2024-03-25T05:56:32;11.35;;;3.85;;
76332;SDS011;71254;53.010;6.508;2024-03-25T05:58:59;12.30;;;4.60;;
76332;SDS011;71254;53.010;6.508;2024-03-25T06:01:25;11.25;;;3.50;;
76332;SDS011;71254;53.010;6.508;2024-03-25T06:03:51;14.50;;;3.72;;
76332;SDS011;71254;53.010;6.508;2024-03-25T06:06:17;14.07;;;3.95;;
76332;SDS011;71254;53.010;6.508;2024-03-25T06:08:43;7.85;;;3.30;;
76332;SDS011;71254;53.010;6.508;2024-03-25T06:11:09;16.50;;;3.88;;
76332;SDS011;71254;53.010;6.508;2024-03-25T06:13:34;11.95;;;2.78;;
76332;SDS011;71254;53.010;6.508;2024-03-25T06:16:00;12.30;;;3.20;;
76332;SDS011;71254;53.010;6.508;2024-03-25T06:18:26;12.85;;;3.50;;
76332;SDS011;71254;53.010;6.508;2024-03-25T06:20:52;14.20;;;3.60;;
76332;SDS011;71254;53.010;6.508;2024-03-25T06:23:27;14.95;;;4.10;;
76332;SDS011;71254;53.010;6.508;2024-03-25T06:25:54;12.18;;;3.80;;
76332;SDS011;71254;53.010;6.508;2024-03-25T06:28:20;9.88;;;3.35;;
76332;SDS011;71254;53.010;6.508;2024-03-25T06:30:48;12.40;;;3.50;;
76332;SDS011;71254;53.010;6.508;2024-03-25T06:33:33;16.30;;;4.00;;
76332;SDS011;71254;53.010;6.508;2024-03-25T06:36:19;15.13;;;3.50;;
76332;SDS011;71254;53.010;6.508;2024-03-25T06:38:45;15.30;;;3.67;;
76332;SDS011;71254;53.010;6.508;2024-03-25T06:41:11;9.90;;;3.35;;
76332;SDS011;71254;53.010;6.508;2024-03-25T06:43:37;12.93;;;3.58;;
76332;SDS011;71254;53.010;6.508;2024-03-25T06:46:03;10.27;;;3.78;;
76332;SDS011;71254;53.010;6.508;2024-03-25T06:48:29;9.60;;;3.80;;
76332;SDS011;71254;53.010;6.508;2024-03-25T06:50:58;16.25;;;3.72;;
76332;SDS011;71254;53.010;6.508;2024-03-25T06:53:24;10.73;;;3.25;;
76332;SDS011;71254;53.010;6.508;2024-03-25T06:56:00;14.35;;;3.78;;
76332;SDS011;71254;53.010;6.508;2024-03-25T06:58:28;10.82;;;4.93;;
76332;SDS011;71254;53.010;6.508;2024-03-25T07:00:54;12.05;;;4.18;;
76332;SDS011;71254;53.010;6.508;2024-03-25T07:03:22;11.23;;;3.33;;
76332;SDS011;71254;53.010;6.508;2024-03-25T07:05:48;13.68;;;3.83;;
76332;SDS011;71254;53.010;6.508;2024-03-25T07:08:17;10.82;;;3.70;;
76332;SDS011;71254;53.010;6.508;2024-03-25T07:10:45;15.63;;;4.45;;
76332;SDS011;71254;53.010;6.508;2024-03-25T07:13:11;11.57;;;3.72;;
76332;SDS011;71254;53.010;6.508;2024-03-25T07:15:37;12.38;;;3.65;;
76332;SDS011;71254;53.010;6.508;2024-03-25T07:18:03;12.23;;;3.65;;
76332;SDS011;71254;53.010;6.508;2024-03-25T07:20:29;13.38;;;3.28;;
76332;SDS011;71254;53.010;6.508;2024-03-25T07:22:56;10.15;;;3.25;;
76332;SDS011;71254;53.010;6.508;2024-03-25T07:25:22;12.13;;;2.97;;
76332;SDS011;71254;53.010;6.508;2024-03-25T07:27:49;13.10;;;4.28;;
76332;SDS011;71254;53.010;6.508;2024-03-25T07:30:14;9.98;;;3.25;;
76332;SDS011;71254;53.010;6.508;2024-03-25T07:32:40;7.70;;;2.60;;
76332;SDS011;71254;53.010;6.508;2024-03-25T07:35:07;11.68;;;3.28;;
76332;SDS011;71254;53.010;6.508;2024-03-25T07:37:34;8.93;;;2.83;;
76332;SDS011;71254;53.010;6.508;2024-03-25T07:40:00;9.48;;;2.88;;
76332;SDS011;71254;53.010;6.508;2024-03-25T07:42:26;11.27;;;3.15;;
76332;SDS011;71254;53.010;6.508;2024-03-25T07:44:51;14.00;;;3.20;;
76332;SDS011;71254;53.010;6.508;2024-03-25T07:47:17;8.57;;;2.55;;
76332;SDS011;71254;53.010;6.508;2024-03-25T07:49:43;10.13;;;2.90;;
76332;SDS011;71254;53.010;6.508;2024-03-25T07:52:09;7.20;;;3.25;;
76332;SDS011;71254;53.010;6.508;2024-03-25T07:54:35;10.18;;;2.42;;
76332;SDS011;71254;53.010;6.508;2024-03-25T07:57:02;8.70;;;2.97;;
76332;SDS011;71254;53.010;6.508;2024-03-25T07:59:29;6.72;;;2.58;;
76332;SDS011;71254;53.010;6.508;2024-03-25T08:01:54;11.32;;;2.67;;
76332;SDS011;71254;53.010;6.508;2024-03-25T08:04:20;9.18;;;2.83;;
76332;SDS011;71254;53.010;6.508;2024-03-25T08:06:46;7.57;;;2.30;;
76332;SDS011;71254;53.010;6.508;2024-03-25T08:09:11;10.23;;;2.63;;
76332;SDS011;71254;53.010;6.508;2024-03-25T08:11:39;6.82;;;2.22;;
76332;SDS011;71254;53.010;6.508;2024-03-25T08:14:04;8.73;;;2.78;;
76332;SDS011;71254;53.010;6.508;2024-03-25T08:16:30;5.57;;;1.98;;
76332;SDS011;71254;53.010;6.508;2024-03-25T08:18:56;5.80;;;2.10;;
76332;SDS011;71254;53.010;6.508;2024-03-25T08:21:22;7.40;;;2.10;;
76332;SDS011;71254;53.010;6.508;2024-03-25T08:23:48;8.98;;;2.03;;
76332;SDS011;71254;53.010;6.508;2024-03-25T08:26:16;8.73;;;1.88;;
76332;SDS011;71254;53.010;6.508;2024-03-25T08:28:42;7.72;;;1.90;;
76332;SDS011;71254;53.010;6.508;2024-03-25T08:31:07;7.57;;;1.77;;
76332;SDS011;71254;53.010;6.508;2024-03-25T08:33:33;8.60;;;1.90;;
76332;SDS011;71254;53.010;6.508;2024-03-25T08:35:58;7.22;;;1.92;;
76332;SDS011;71254;53.010;6.508;2024-03-25T08:38:24;6.75;;;2.40;;
76332;SDS011;71254;53.010;6.508;2024-03-25T08:40:50;5.53;;;1.90;;
76332;SDS011;71254;53.010;6.508;2024-03-25T08:43:16;7.25;;;2.53;;
76332;SDS011;71254;53.010;6.508;2024-03-25T08:45:42;9.02;;;2.10;;
76332;SDS011;71254;53.010;6.508;2024-03-25T08:48:08;8.35;;;2.42;;
76332;SDS011;71254;53.010;6.508;2024-03-25T08:50:34;4.13;;;1.95;;
76332;SDS011;71254;53.010;6.508;2024-03-25T08:53:03;7.97;;;2.72;;
76332;SDS011;71254;53.010;6.508;2024-03-25T08:55:29;6.22;;;2.25;;
76332;SDS011;71254;53.010;6.508;2024-03-25T08:57:55;8.35;;;2.40;;
76332;SDS011;71254;53.010;6.508;2024-03-25T09:00:23;6.97;;;2.45;;
76332;SDS011;71254;53.010;6.508;2024-03-25T09:02:52;8.00;;;2.15;;
76332;SDS011;71254;53.010;6.508;2024-03-25T09:05:18;8.35;;;2.58;;
76332;SDS011;71254;53.010;6.508;2024-03-25T09:07:50;8.18;;;2.55;;
76332;SDS011;71254;53.010;6.508;2024-03-25T09:10:20;7.88;;;2.10;;
76332;SDS011;71254;53.010;6.508;2024-03-25T09:13:04;6.80;;;2.00;;
76332;SDS011;71254;53.010;6.508;2024-03-25T09:15:30;9.10;;;2.42;;
76332;SDS011;71254;53.010;6.508;2024-03-25T09:17:56;6.47;;;2.00;;
76332;SDS011;71254;53.010;6.508;2024-03-25T09:20:22;6.07;;;2.03;;
76332;SDS011;71254;53.010;6.508;2024-03-25T09:22:48;7.53;;;1.85;;
76332;SDS011;71254;53.010;6.508;2024-03-25T09:25:16;6.20;;;2.25;;
76332;SDS011;71254;53.010;6.508;2024-03-25T09:27:46;4.60;;;1.63;;
76332;SDS011;71254;53.010;6.508;2024-03-25T09:30:12;6.55;;;1.63;;
76332;SDS011;71254;53.010;6.508;2024-03-25T09:32:39;5.40;;;1.80;;
76332;SDS011;71254;53.010;6.508;2024-03-25T09:35:06;4.40;;;1.73;;
76332;SDS011;71254;53.010;6.508;2024-03-25T09:37:32;3.47;;;1.40;;
76332;SDS011;71254;53.010;6.508;2024-03-25T09:39:57;4.80;;;1.88;;
76332;SDS011;71254;53.010;6.508;2024-03-25T09:42:27;8.15;;;2.03;;
76332;SDS011;71254;53.010;6.508;2024-03-25T09:44:57;7.85;;;1.70;;
76332;SDS011;71254;53.010;6.508;2024-03-25T09:47:23;5.03;;;1.40;;
76332;SDS011;71254;53.010;6.508;2024-03-25T09:49:48;5.82;;;1.52;;
76332;SDS011;71254;53.010;6.508;2024-03-25T09:52:15;6.30;;;1.95;;
76332;SDS011;71254;53.010;6.508;2024-03-25T09:54:41;5.82;;;1.83;;
76332;SDS011;71254;53.010;6.508;2024-03-25T09:57:07;7.97;;;2.38;;
76332;SDS011;71254;53.010;6.508;2024-03-25T09:59:34;5.55;;;2.08;;
76332;SDS011;71254;53.010;6.508;2024-03-25T10:02:00;5.88;;;1.42;;
76332;SDS011;71254;53.010;6.508;2024-03-25T10:04:26;6.60;;;1.65;;
76332;SDS011;71254;53.010;6.508;2024-03-25T10:06:52;8.23;;;2.30;;
76332;SDS011;71254;53.010;6.508;2024-03-25T10:09:19;5.32;;;1.90;;
76332;SDS011;71254;53.010;6.508;2024-03-25T10:14:14;8.23;;;1.75;;
76332;SDS011;71254;53.010;6.508;2024-03-25T10:16:46;4.85;;;1.63;;
76332;SDS011;71254;53.010;6.508;2024-03-25T10:19:14;9.63;;;1.98;;
76332;SDS011;71254;53.010;6.508;2024-03-25T10:21:39;8.60;;;2.03;;
76332;SDS011;71254;53.010;6.508;2024-03-25T10:24:05;6.72;;;2.03;;
76332;SDS011;71254;53.010;6.508;2024-03-25T10:26:32;3.78;;;1.60;;
76332;SDS011;71254;53.010;6.508;2024-03-25T10:29:01;4.47;;;1.90;;
76332;SDS011;71254;53.010;6.508;2024-03-25T10:31:31;5.68;;;1.92;;
76332;SDS011;71254;53.010;6.508;2024-03-25T10:33:57;4.38;;;2.00;;
76332;SDS011;71254;53.010;6.508;2024-03-25T10:36:24;6.88;;;1.98;;
76332;SDS011;71254;53.010;6.508;2024-03-25T10:38:53;4.85;;;2.42;;
76332;SDS011;71254;53.010;6.508;2024-03-25T10:41:20;6.03;;;2.17;;
76332;SDS011;71254;53.010;6.508;2024-03-25T10:43:48;6.95;;;2.00;;
76332;SDS011;71254;53.010;6.508;2024-03-25T10:46:18;4.97;;;1.83;;
76332;SDS011;71254;53.010;6.508;2024-03-25T10:48:54;4.32;;;1.80;;
76332;SDS011;71254;53.010;6.508;2024-03-25T10:51:43;6.90;;;2.17;;
76332;SDS011;71254;53.010;6.508;2024-03-25T10:54:10;6.10;;;1.85;;
76332;SDS011;71254;53.010;6.508;2024-03-25T10:56:37;6.15;;;1.98;;
76332;SDS011;71254;53.010;6.508;2024-03-25T10:59:03;6.38;;;2.20;;
76332;SDS011;71254;53.010;6.508;2024-03-25T11:01:30;6.22;;;1.70;;
76332;SDS011;71254;53.010;6.508;2024-03-25T11:03:57;4.93;;;1.58;;
76332;SDS011;71254;53.010;6.508;2024-03-25T11:06:23;5.05;;;1.85;;
76332;SDS011;71254;53.010;6.508;2024-03-25T11:08:58;6.90;;;1.90;;
76332;SDS011;71254;53.010;6.508;2024-03-25T11:11:30;6.60;;;1.80;;
76332;SDS011;71254;53.010;6.508;2024-03-25T11:13:58;8.38;;;1.80;;
76332;SDS011;71254;53.010;6.508;2024-03-25T11:16:30;5.55;;;1.92;;
76332;SDS011;71254;53.010;6.508;2024-03-25T11:19:03;4.35;;;2.13;;
76332;SDS011;71254;53.010;6.508;2024-03-25T11:21:28;6.57;;;1.70;;
76332;SDS011;71254;53.010;6.508;2024-03-25T11:23:54;7.43;;;1.80;;
76332;SDS011;71254;53.010;6.508;2024-03-25T11:26:31;3.88;;;1.45;;
76332;SDS011;71254;53.010;6.508;2024-03-25T11:29:00;4.75;;;1.80;;
76332;SDS011;71254;53.010;6.508;2024-03-25T11:31:26;5.50;;;1.42;;
76332;SDS011;71254;53.010;6.508;2024-03-25T11:33:52;5.75;;;1.70;;
76332;SDS011;71254;53.010;6.508;2024-03-25T11:36:18;5.60;;;1.80;;
76332;SDS011;71254;53.010;6.508;2024-03-25T11:38:45;5.97;;;2.22;;
76332;SDS011;71254;53.010;6.508;2024-03-25T11:41:11;5.65;;;2.10;;
76332;SDS011;71254;53.010;6.508;2024-03-25T11:43:41;5.07;;;1.67;;
76332;SDS011;71254;53.010;6.508;2024-03-25T11:46:07;5.85;;;2.00;;
76332;SDS011;71254;53.010;6.508;2024-03-25T11:48:32;6.18;;;1.90;;
76332;SDS011;71254;53.010;6.508;2024-03-25T11:50:58;5.13;;;1.88;;
76332;SDS011;71254;53.010;6.508;2024-03-25T11:53:25;7.57;;;2.17;;
76332;SDS011;71254;53.010;6.508;2024-03-25T11:55:55;6.38;;;2.00;;
76332;SDS011;71254;53.010;6.508;2024-03-25T11:58:21;5.68;;;1.70;;
76332;SDS011;71254;53.010;6.508;2024-03-25T12:00:47;5.80;;;1.90;;
76332;SDS011;71254;53.010;6.508;2024-03-25T12:03:18;6.57;;;1.80;;
76332;SDS011;71254;53.010;6.508;2024-03-25T12:05:44;3.90;;;1.80;;
76332;SDS011;71254;53.010;6.508;2024-03-25T12:08:10;4.85;;;2.00;;
76332;SDS011;71254;53.010;6.508;2024-03-25T12:10:39;5.35;;;1.90;;
76332;SDS011;71254;53.010;6.508;2024-03-25T12:13:24;5.20;;;1.58;;
76332;SDS011;71254;53.010;6.508;2024-03-25T12:15:51;6.03;;;2.05;;
76332;SDS011;71254;53.010;6.508;2024-03-25T12:18:20;3.13;;;1.52;;
76332;SDS011;71254;53.010;6.508;2024-03-25T12:20:46;6.03;;;2.03;;
76332;SDS011;71254;53.010;6.508;2024-03-25T12:23:12;5.07;;;1.70;;
76332;SDS011;71254;53.010;6.508;2024-03-25T12:25:37;4.43;;;1.85;;
76332;SDS011;71254;53.010;6.508;2024-03-25T12:28:10;5.22;;;1.75;;
76332;SDS011;71254;53.010;6.508;2024-03-25T12:30:48;5.93;;;1.80;;
76332;SDS011;71254;53.010;6.508;2024-03-25T12:33:17;6.43;;;2.35;;
76332;SDS011;71254;53.010;6.508;2024-03-25T12:35:46;7.88;;;2.15;;
76332;SDS011;71254;53.010;6.508;2024-03-25T12:38:29;4.82;;;1.65;;
76332;SDS011;71254;53.010;6.508;2024-03-25T12:43:33;7.72;;;2.15;;
76332;SDS011;71254;53.010;6.508;2024-03-25T12:46:00;5.63;;;1.73;;
76332;SDS011;71254;53.010;6.508;2024-03-25T12:48:26;6.00;;;1.70;;
76332;SDS011;71254;53.010;6.508;2024-03-25T12:50:51;8.93;;;1.83;;
76332;SDS011;71254;53.010;6.508;2024-03-25T12:53:21;4.97;;;1.90;;
76332;SDS011;71254;53.010;6.508;2024-03-25T12:55:47;8.18;;;2.13;;
76332;SDS011;71254;53.010;6.508;2024-03-25T12:58:13;4.78;;;1.58;;
76332;SDS011;71254;53.010;6.508;2024-03-25T13:00:39;3.67;;;1.60;;
76332;SDS011;71254;53.010;6.508;2024-03-25T13:03:06;7.82;;;1.90;;
76332;SDS011;71254;53.010;6.508;2024-03-25T13:05:33;6.97;;;1.92;;
76332;SDS011;71254;53.010;6.508;2024-03-25T13:07:59;23.27;;;3.83;;
76332;SDS011;71254;53.010;6.508;2024-03-25T13:10:31;6.07;;;1.80;;
76332;SDS011;71254;53.010;6.508;2024-03-25T13:12:57;8.05;;;1.88;;
76332;SDS011;71254;53.010;6.508;2024-03-25T13:15:22;17.52;;;3.00;;
76332;SDS011;71254;53.010;6.508;2024-03-25T13:17:48;40.42;;;6.03;;
76332;SDS011;71254;53.010;6.508;2024-03-25T13:20:14;31.15;;;4.10;;
76332;SDS011;71254;53.010;6.508;2024-03-25T13:22:39;32.00;;;4.32;;
76332;SDS011;71254;53.010;6.508;2024-03-25T13:25:05;8.65;;;2.30;;
76332;SDS011;71254;53.010;6.508;2024-03-25T13:27:32;5.63;;;1.55;;
76332;SDS011;71254;53.010;6.508;2024-03-25T13:30:00;3.80;;;1.57;;
76332;SDS011;71254;53.010;6.508;2024-03-25T13:32:26;4.88;;;1.48;;
76332;SDS011;71254;53.010;6.508;2024-03-25T13:34:52;4.72;;;1.58;;
76332;SDS011;71254;53.010;6.508;2024-03-25T13:37:17;41.17;;;5.28;;
76332;SDS011;71254;53.010;6.508;2024-03-25T13:39:43;12.07;;;1.95;;
76332;SDS011;71254;53.010;6.508;2024-03-25T13:42:11;6.03;;;1.92;;
76332;SDS011;71254;53.010;6.508;2024-03-25T13:44:36;4.13;;;1.60;;
76332;SDS011;71254;53.010;6.508;2024-03-25T13:47:02;5.88;;;1.70;;
76332;SDS011;71254;53.010;6.508;2024-03-25T13:49:28;5.60;;;1.90;;
76332;SDS011;71254;53.010;6.508;2024-03-25T13:52:06;6.70;;;1.92;;
76332;SDS011;71254;53.010;6.508;2024-03-25T13:54:31;6.22;;;1.80;;
76332;SDS011;71254;53.010;6.508;2024-03-25T13:56:57;5.10;;;1.48;;
76332;SDS011;71254;53.010;6.508;2024-03-25T13:59:23;4.90;;;1.50;;
76332;SDS011;71254;53.010;6.508;2024-03-25T14:01:49;5.20;;;1.73;;
76332;SDS011;71254;53.010;6.508;2024-03-25T14:04:16;3.97;;;1.65;;
76332;SDS011;71254;53.010;6.508;2024-03-25T14:06:43;6.68;;;1.50;;
76332;SDS011;71254;53.010;6.508;2024-03-25T14:09:10;4.95;;;1.58;;
76332;SDS011;71254;53.010;6.508;2024-03-25T14:11:56;7.70;;;1.92;;
76332;SDS011;71254;53.010;6.508;2024-03-25T14:14:22;4.82;;;1.83;;
76332;SDS011;71254;53.010;6.508;2024-03-25T14:16:47;6.10;;;1.40;;
76332;SDS011;71254;53.010;6.508;2024-03-25T14:19:16;5.60;;;1.60;;
76332;SDS011;71254;53.010;6.508;2024-03-25T14:21:42;7.30;;;1.88;;
76332;SDS011;71254;53.010;6.508;2024-03-25T14:24:08;5.70;;;1.30;;
76332;SDS011;71254;53.010;6.508;2024-03-25T14:26:34;5.13;;;1.70;;
76332;SDS011;71254;53.010;6.508;2024-03-25T14:28:59;4.10;;;1.27;;
76332;SDS011;71254;53.010;6.508;2024-03-25T14:31:28;5.68;;;1.80;;
76332;SDS011;71254;53.010;6.508;2024-03-25T14:33:54;3.13;;;1.37;;
76332;SDS011;71254;53.010;6.508;2024-03-25T14:36:20;5.25;;;1.42;;
76332;SDS011;71254;53.010;6.508;2024-03-25T14:38:49;6.88;;;1.92;;
76332;SDS011;71254;53.010;6.508;2024-03-25T14:41:18;3.28;;;1.40;;
76332;SDS011;71254;53.010;6.508;2024-03-25T14:43:45;6.32;;;1.50;;
76332;SDS011;71254;53.010;6.508;2024-03-25T14:46:11;4.57;;;1.55;;